createdAt,value
2023-03-20T00:01:02.490Z,8.19
2023-03-20T00:02:15.979Z,8.86
2023-03-20T00:03:29.865Z,9.39
2023-03-20T00:04:34.226Z,9.80
2023-03-20T00:05:57.250Z,10.07
2023-03-20T00:07:10.850Z,9.92
2023-03-20T00:08:24.363Z,9.55
2023-03-20T00:09:38.023Z,9.12
2023-03-20T00:10:51.783Z,8.74
2023-03-20T00:12:08.344Z,8.42
2023-03-20T00:13:21.992Z,8.12
2023-03-20T00:14:38.771Z,7.88
2023-03-20T00:15:43.556Z,7.67
2023-03-20T00:16:57.215Z,7.52
2023-03-20T00:17:50.909Z,7.38
2023-03-20T00:18:58.152Z,7.28
2023-03-20T00:19:52.434Z,7.22
2023-03-20T00:21:06.119Z,7.46
2023-03-20T00:22:20.931Z,8.07
2023-03-20T00:23:34.487Z,8.76
2023-03-20T00:24:48.203Z,9.35
2023-03-20T00:26:01.774Z,9.80
2023-03-20T00:27:08.471Z,10.08
2023-03-20T00:28:22.101Z,9.95
2023-03-20T00:29:35.787Z,9.59
2023-03-20T00:30:52.120Z,9.18
2023-03-20T00:32:08.467Z,8.78
2023-03-20T00:33:21.922Z,8.46
2023-03-20T00:34:35.549Z,8.19
2023-03-20T00:35:49.332Z,7.97
2023-03-20T00:37:02.894Z,7.77
2023-03-20T00:38:16.623Z,7.59
2023-03-20T00:39:30.297Z,7.43
2023-03-20T00:40:43.869Z,7.29
2023-03-20T00:42:00.585Z,7.17
2023-03-20T00:43:14.364Z,7.15
2023-03-20T00:44:28.128Z,7.64
2023-03-20T00:45:41.773Z,8.30
2023-03-20T00:46:35.266Z,8.91
2023-03-20T00:47:52.015Z,9.27
2023-03-20T00:48:54.465Z,9.60
2023-03-20T00:50:10.672Z,9.53
2023-03-20T00:51:24.372Z,9.20
2023-03-20T00:52:37.999Z,8.85
2023-03-20T00:53:51.492Z,8.49
2023-03-20T00:55:05.306Z,8.18
2023-03-20T00:55:59.697Z,7.93
2023-03-20T00:57:13.254Z,7.76
2023-03-20T00:58:16.001Z,7.57
2023-03-20T00:59:09.627Z,7.43
2023-03-20T01:00:11.765Z,7.31
2023-03-20T01:01:05.908Z,7.23
2023-03-20T01:02:19.601Z,7.41
2023-03-20T01:03:33.268Z,7.98
2023-03-20T01:04:35.525Z,8.63
2023-03-20T01:05:49.235Z,9.16
2023-03-20T01:07:02.807Z,9.67
2023-03-20T01:08:16.538Z,9.99
2023-03-20T01:09:30.347Z,9.88
2023-03-20T01:10:44.371Z,9.51
2023-03-20T01:11:58.048Z,9.10
2023-03-20T01:13:11.347Z,8.71
2023-03-20T01:14:25.081Z,8.38
2023-03-20T01:15:38.709Z,8.10
2023-03-20T01:16:52.471Z,7.86
2023-03-20T01:18:06.194Z,7.66
2023-03-20T01:19:19.896Z,7.48
2023-03-20T01:20:33.619Z,7.32
2023-03-20T01:21:47.450Z,7.17
2023-03-20T01:23:01.072Z,7.16
2023-03-20T01:24:14.742Z,7.72
2023-03-20T01:25:28.360Z,8.61
2023-03-20T01:26:31.843Z,9.45
2023-03-20T01:27:45.763Z,10.02
2023-03-20T01:28:54.175Z,10.40
2023-03-20T01:29:56.840Z,10.27
2023-03-20T01:31:03.892Z,9.94
2023-03-20T01:32:17.859Z,9.53
2023-03-20T01:33:31.664Z,9.09
2023-03-20T01:34:34.445Z,8.70
2023-03-20T01:35:48.333Z,8.41
2023-03-20T01:37:01.803Z,8.14
2023-03-20T01:38:15.426Z,7.89
2023-03-20T01:39:29.029Z,7.69
2023-03-20T01:40:42.713Z,7.49
2023-03-20T01:41:56.392Z,7.33
2023-03-20T01:43:10.012Z,7.17
2023-03-20T01:44:23.580Z,7.03
2023-03-20T01:45:37.406Z,7.02
2023-03-20T01:47:00.325Z,7.64
2023-03-20T01:47:59.063Z,8.52
2023-03-20T01:49:12.745Z,9.11
2023-03-20T01:50:24.835Z,9.71
2023-03-20T01:51:38.516Z,10.06
2023-03-20T01:52:52.268Z,9.92
2023-03-20T01:54:05.786Z,9.53
2023-03-20T01:55:19.331Z,9.09
2023-03-20T01:56:21.716Z,8.68
2023-03-20T01:57:35.202Z,8.38
2023-03-20T01:58:44.358Z,8.07
2023-03-20T01:59:58.045Z,7.82
2023-03-20T02:01:11.920Z,7.59
2023-03-20T02:02:25.568Z,7.40
2023-03-20T02:03:39.308Z,7.23
2023-03-20T02:04:54.887Z,7.06
2023-03-20T02:05:31.484Z,7.04
2023-03-20T02:06:33.748Z,7.25
2023-03-20T02:07:47.703Z,7.78
2023-03-20T02:09:01.697Z,8.47
2023-03-20T02:10:15.469Z,9.11
2023-03-20T02:11:29.040Z,9.63
2023-03-20T02:12:42.543Z,9.97
2023-03-20T02:13:56.076Z,9.84
2023-03-20T02:15:09.718Z,9.44
2023-03-20T02:16:38.653Z,9.01
2023-03-20T02:17:52.259Z,8.52
2023-03-20T02:19:05.927Z,8.18
2023-03-20T02:20:14.286Z,7.89
2023-03-20T02:21:34.182Z,7.66
2023-03-20T02:22:47.921Z,7.42
2023-03-20T02:24:04.394Z,7.24
2023-03-20T02:25:27.029Z,7.06
2023-03-20T02:26:20.257Z,7.00
2023-03-20T02:27:36.604Z,7.30
2023-03-20T02:28:48.789Z,8.07
2023-03-20T02:30:20.772Z,8.85
2023-03-20T02:31:32.777Z,9.53
2023-03-20T02:32:44.920Z,9.87
2023-03-20T02:33:38.204Z,9.78
2023-03-20T02:35:04.061Z,9.50
2023-03-20T02:36:29.676Z,9.03
2023-03-20T02:38:01.847Z,8.57
2023-03-20T02:39:18.810Z,8.15
2023-03-20T02:40:44.956Z,7.86
2023-03-20T02:42:17.111Z,7.59
2023-03-20T02:43:40.058Z,7.34
2023-03-20T02:45:03.631Z,7.13
2023-03-20T02:46:24.744Z,6.95
2023-03-20T02:47:41.826Z,6.78
2023-03-20T02:48:58.532Z,6.78
2023-03-20T02:50:27.092Z,7.36
2023-03-20T02:51:56.499Z,8.26
2023-03-20T02:53:17.292Z,8.98
2023-03-20T02:54:52.631Z,9.54
2023-03-20T02:56:10.980Z,9.85
2023-03-20T02:57:40.077Z,9.56
2023-03-20T02:59:01.767Z,9.13
2023-03-20T03:00:34.042Z,8.68
2023-03-20T03:01:50.867Z,8.23
2023-03-20T03:02:54.971Z,7.91
2023-03-20T03:04:11.022Z,7.69
2023-03-20T03:05:29.590Z,7.46
2023-03-20T03:06:42.845Z,7.24
2023-03-20T03:07:56.514Z,7.06
2023-03-20T03:09:10.479Z,6.99
2023-03-20T03:10:10.342Z,7.38
2023-03-20T03:11:26.836Z,7.95
2023-03-20T03:12:41.811Z,8.80
2023-03-20T03:13:59.443Z,9.45
2023-03-20T03:15:21.974Z,9.88
2023-03-20T03:16:35.684Z,10.11
2023-03-20T03:17:49.224Z,9.85
2023-03-20T03:19:02.982Z,9.41
2023-03-20T03:20:11.502Z,8.96
2023-03-20T03:21:25.190Z,8.57
2023-03-20T03:22:38.963Z,8.21
2023-03-20T03:23:52.511Z,7.92
2023-03-20T03:25:09.130Z,7.64
2023-03-20T03:26:22.749Z,7.41
2023-03-20T03:27:37.314Z,7.20
2023-03-20T03:28:50.953Z,7.00
2023-03-20T03:29:44.597Z,6.82
2023-03-20T03:31:07.176Z,6.74
2023-03-20T03:32:20.901Z,7.10
2023-03-20T03:33:38.417Z,7.75
2023-03-20T03:34:54.000Z,8.38
2023-03-20T03:36:07.712Z,8.96
2023-03-20T03:37:24.477Z,9.41
2023-03-20T03:38:38.112Z,9.74
2023-03-20T03:39:54.917Z,9.60
2023-03-20T03:41:14.153Z,9.19
2023-03-20T03:42:29.321Z,8.71
2023-03-20T03:44:09.698Z,8.25
2023-03-20T03:52:54.485Z,7.20
2023-03-20T03:54:13.697Z,7.83
2023-03-20T03:55:27.600Z,8.52
2023-03-20T03:56:21.144Z,9.12
2023-03-20T03:57:26.245Z,9.52
2023-03-20T03:58:39.923Z,9.83
2023-03-20T03:59:53.833Z,9.71
2023-03-20T04:01:07.566Z,9.31
2023-03-20T04:02:21.106Z,8.87
2023-03-20T04:03:34.824Z,8.45
2023-03-20T04:04:48.529Z,8.10
2023-03-20T04:06:01.640Z,7.80
2023-03-20T04:07:15.689Z,7.54
2023-03-20T04:08:29.429Z,7.32
2023-03-20T04:09:43.038Z,7.12
2023-03-20T04:10:56.980Z,7.04
2023-03-20T04:12:10.803Z,7.49
2023-03-20T04:13:24.038Z,8.20
2023-03-20T04:14:30.040Z,8.85
2023-03-20T04:15:43.434Z,9.29
2023-03-20T04:16:57.332Z,9.63
2023-03-20T04:18:11.061Z,9.81
2023-03-20T04:19:24.773Z,9.59
2023-03-20T04:20:38.364Z,9.20
2023-03-20T04:21:51.885Z,8.76
2023-03-20T04:22:54.271Z,8.38
2023-03-20T04:24:07.824Z,8.09
2023-03-20T04:25:21.688Z,7.79
2023-03-20T04:26:35.407Z,7.53
2023-03-20T04:27:49.115Z,7.30
2023-03-20T04:29:02.918Z,7.11
2023-03-20T04:30:16.573Z,6.99
2023-03-20T04:31:33.182Z,7.33
2023-03-20T04:32:47.042Z,7.96
2023-03-20T04:33:49.020Z,8.57
2023-03-20T04:35:02.801Z,9.07
2023-03-20T04:36:16.596Z,9.53
2023-03-20T04:37:30.377Z,9.83
2023-03-20T04:38:44.052Z,9.66
2023-03-20T04:39:57.795Z,9.27
2023-03-20T04:41:11.441Z,8.84
2023-03-20T04:42:25.166Z,8.42
2023-03-20T04:43:38.780Z,8.08
2023-03-20T04:44:52.411Z,7.79
2023-03-20T04:46:06.320Z,7.53
2023-03-20T04:47:20.380Z,7.32
2023-03-20T04:48:34.118Z,7.19
2023-03-20T04:49:40.772Z,7.54
2023-03-20T04:50:50.940Z,8.13
2023-03-20T04:52:04.830Z,8.78
2023-03-20T04:53:18.506Z,9.36
2023-03-20T04:54:32.225Z,9.85
2023-03-20T04:55:35.225Z,10.14
2023-03-20T04:56:49.373Z,10.02
2023-03-20T04:58:02.917Z,9.64
2023-03-20T04:59:13.194Z,9.19
2023-03-20T05:00:26.925Z,8.79
2023-03-20T05:01:30.468Z,8.43
2023-03-20T05:02:44.291Z,8.16
2023-03-20T05:03:37.825Z,7.89
2023-03-20T05:04:55.229Z,7.73
2023-03-20T05:06:08.842Z,7.52
2023-03-20T05:07:11.408Z,7.44
2023-03-20T05:08:25.031Z,7.88
2023-03-20T05:09:31.056Z,8.68
2023-03-20T05:10:44.731Z,9.36
2023-03-20T05:11:58.540Z,9.83
2023-03-20T05:13:12.277Z,10.08
2023-03-20T05:14:05.669Z,9.91
2023-03-20T05:15:19.260Z,9.66
2023-03-20T05:16:33.093Z,9.26
2023-03-20T05:17:46.705Z,8.88
2023-03-20T05:19:00.606Z,8.54
2023-03-20T05:20:14.256Z,8.27
2023-03-20T05:21:20.728Z,8.05
2023-03-20T05:22:34.361Z,7.88
2023-03-20T05:23:48.017Z,7.73
2023-03-20T05:24:54.943Z,7.59
2023-03-20T05:26:08.515Z,7.48
2023-03-20T05:27:21.953Z,7.38
2023-03-20T05:28:35.542Z,7.29
2023-03-20T05:29:49.084Z,7.21
2023-03-20T05:31:02.949Z,7.13
2023-03-20T05:32:15.997Z,7.16
2023-03-20T05:33:32.787Z,7.63
2023-03-20T05:34:46.326Z,8.36
2023-03-20T05:35:59.925Z,9.08
2023-03-20T05:37:04.780Z,9.62
2023-03-20T05:38:18.489Z,9.70
2023-03-20T05:39:32.103Z,9.49
2023-03-20T05:40:35.110Z,9.19
2023-03-20T05:41:48.666Z,8.95
2023-03-20T05:43:02.383Z,8.68
2023-03-20T05:44:16.154Z,8.47
2023-03-20T05:45:20.798Z,8.30
2023-03-20T05:46:34.579Z,8.17
2023-03-20T05:47:48.362Z,8.05
2023-03-20T05:48:50.558Z,7.95
2023-03-20T05:50:04.334Z,7.86
2023-03-20T05:51:11.623Z,7.79
2023-03-20T05:52:25.347Z,7.72
2023-03-20T05:53:18.708Z,7.66
2023-03-20T05:54:33.461Z,7.62
2023-03-20T05:55:47.261Z,7.58
2023-03-20T05:57:01.162Z,7.54
2023-03-20T05:58:03.888Z,7.50
2023-03-20T05:59:18.645Z,7.48
2023-03-20T06:00:32.449Z,7.45
2023-03-20T06:01:45.187Z,7.49
2023-03-20T06:02:58.744Z,8.01
2023-03-20T06:04:12.413Z,8.88
2023-03-20T06:06:57.012Z,10.02
2023-03-20T06:08:10.783Z,9.95
2023-03-20T06:09:24.521Z,9.71
2023-03-20T06:10:38.340Z,9.46
2023-03-20T06:11:52.136Z,9.23
2023-03-20T06:13:05.963Z,9.04
2023-03-20T06:14:19.796Z,8.89
2023-03-20T06:15:33.830Z,8.76
2023-03-20T06:16:48.006Z,8.65
2023-03-20T06:17:50.420Z,8.58
2023-03-20T06:19:03.055Z,8.51
2023-03-20T06:20:16.719Z,8.46
2023-03-20T06:21:34.575Z,8.42
2023-03-20T06:22:48.048Z,8.38
2023-03-20T06:24:01.734Z,8.36
2023-03-20T06:25:16.097Z,8.34
2023-03-20T06:26:19.654Z,8.33
2023-03-20T06:27:25.965Z,8.32
2023-03-20T06:28:39.617Z,8.32
2023-03-20T06:29:53.127Z,8.32
2023-03-20T06:30:55.395Z,8.31
2023-03-20T06:32:08.928Z,8.31
2023-03-20T06:33:05.386Z,8.31
2023-03-20T06:34:19.021Z,8.31
2023-03-20T06:35:32.669Z,8.31
2023-03-20T06:36:46.393Z,8.32
2023-03-20T06:37:59.953Z,8.33
2023-03-20T06:39:13.574Z,8.34
2023-03-20T06:40:15.756Z,8.36
2023-03-20T06:41:33.406Z,8.37
2023-03-20T06:42:41.095Z,8.38
2023-03-20T06:43:54.615Z,8.40
2023-03-20T06:45:08.109Z,8.42
2023-03-20T06:46:11.260Z,8.43
2023-03-20T06:47:24.758Z,8.45
2023-03-20T06:48:38.273Z,8.47
2023-03-20T06:49:34.167Z,8.50
2023-03-20T06:50:47.795Z,8.52
2023-03-20T06:52:01.413Z,8.54
2023-03-20T06:53:14.917Z,8.57
2023-03-20T06:54:28.538Z,8.60
2023-03-20T06:55:43.053Z,8.63
2023-03-20T06:56:56.547Z,8.67
2023-03-20T06:58:10.023Z,8.70
2023-03-20T06:59:23.611Z,8.74
2023-03-20T07:00:37.013Z,8.77
2023-03-20T07:01:53.672Z,8.82
2023-03-20T07:03:07.285Z,8.87
2023-03-20T07:04:20.862Z,8.92
2023-03-20T07:05:34.516Z,8.96
2023-03-20T07:06:40.572Z,9.02
2023-03-20T07:07:46.774Z,9.07
2023-03-20T07:09:00.350Z,9.11
2023-03-20T07:10:13.926Z,9.17
2023-03-20T07:11:25.995Z,9.22
2023-03-20T07:12:19.089Z,9.28
2023-03-20T07:13:32.652Z,9.32
2023-03-20T07:14:46.200Z,9.37
2023-03-20T07:16:03.654Z,9.43
2023-03-20T07:17:06.481Z,9.48
2023-03-20T07:18:19.965Z,9.52
2023-03-20T07:19:33.572Z,9.55
2023-03-20T07:20:47.588Z,9.60
2023-03-20T07:22:01.088Z,9.63
2023-03-20T07:22:56.871Z,9.66
2023-03-20T07:24:10.536Z,9.69
2023-03-20T07:25:35.414Z,9.72
2023-03-20T07:26:55.406Z,9.75
2023-03-20T07:28:09.177Z,9.78
2023-03-20T07:29:22.807Z,9.81
2023-03-20T07:30:36.343Z,9.84
2023-03-20T07:31:49.981Z,9.86
2023-03-20T07:32:52.325Z,9.88
2023-03-20T07:33:58.857Z,9.89
2023-03-20T07:35:12.434Z,9.92
2023-03-20T07:36:14.814Z,9.94
2023-03-20T07:37:21.138Z,9.96
2023-03-20T07:38:34.716Z,9.98
2023-03-20T07:39:48.287Z,10.00
2023-03-20T07:41:01.888Z,10.03
2023-03-20T07:42:03.971Z,10.05
2023-03-20T07:43:17.356Z,10.08
2023-03-20T07:44:23.309Z,10.12
2023-03-20T07:45:29.430Z,10.16
2023-03-20T07:46:43.039Z,10.20
2023-03-20T07:47:56.655Z,10.24
2023-03-20T07:49:10.184Z,10.28
2023-03-20T07:50:23.881Z,10.32
2023-03-20T07:51:24.988Z,10.36
2023-03-20T07:52:27.695Z,10.39
2023-03-20T07:53:41.281Z,10.42
2023-03-20T07:54:54.746Z,10.45
2023-03-20T07:56:08.237Z,10.49
2023-03-20T07:57:21.717Z,10.52
2023-03-20T07:58:35.210Z,10.54
2023-03-20T07:59:48.783Z,10.57
2023-03-20T08:00:54.798Z,10.58
2023-03-20T08:02:08.380Z,10.61
2023-03-20T08:03:22.102Z,10.62
2023-03-20T08:04:24.484Z,10.65
2023-03-20T08:05:38.365Z,10.65
2023-03-20T08:06:52.338Z,10.67
2023-03-20T08:07:56.478Z,10.70
2023-03-20T08:09:02.808Z,10.73
2023-03-20T08:10:04.848Z,10.74
2023-03-20T08:11:18.450Z,10.77
2023-03-20T08:12:31.966Z,10.79
2023-03-20T08:13:45.695Z,10.82
2023-03-20T08:14:47.974Z,10.86
2023-03-20T08:16:01.612Z,10.88
2023-03-20T08:17:14.450Z,10.91
2023-03-20T08:18:20.174Z,10.95
2023-03-20T08:19:32.506Z,10.99
2023-03-20T08:20:46.129Z,11.03
2023-03-20T08:21:59.575Z,11.07
2023-03-20T08:23:01.514Z,11.10
2023-03-20T08:24:14.983Z,11.14
2023-03-20T08:25:28.544Z,11.16
2023-03-20T08:26:42.030Z,11.20
2023-03-20T08:27:48.122Z,11.23
2023-03-20T08:28:53.985Z,11.26
2023-03-20T08:29:54.753Z,11.29
2023-03-20T08:31:08.293Z,11.32
2023-03-20T08:32:21.839Z,11.35
2023-03-20T08:33:35.370Z,11.38
2023-03-20T08:34:48.841Z,11.40
2023-03-20T08:36:02.540Z,11.43
2023-03-20T08:37:17.201Z,11.45
2023-03-20T08:38:30.753Z,11.47
2023-03-20T08:39:44.420Z,11.50
2023-03-20T08:40:57.985Z,11.53
2023-03-20T08:42:11.507Z,11.55
2023-03-20T08:43:10.102Z,11.58
2023-03-20T08:44:12.394Z,11.60
2023-03-20T08:45:25.902Z,11.61
2023-03-20T08:46:29.646Z,11.63
2023-03-20T08:47:43.427Z,11.65
2023-03-20T08:48:57.059Z,11.67
2023-03-20T08:50:10.681Z,11.69
2023-03-20T08:51:24.255Z,11.71
2023-03-20T08:52:38.121Z,11.73
2023-03-20T08:53:51.856Z,11.75
2023-03-20T08:55:05.369Z,11.76
2023-03-20T08:56:19.015Z,11.77
2023-03-20T08:57:32.482Z,11.80
2023-03-20T08:58:35.930Z,11.82
2023-03-20T08:59:49.472Z,11.84
2023-03-20T09:01:03.247Z,11.86
2023-03-20T09:02:16.943Z,11.88
2023-03-20T09:03:30.521Z,11.91
2023-03-20T09:04:36.691Z,11.95
2023-03-20T09:05:42.968Z,11.97
2023-03-20T09:06:56.443Z,12.01
2023-03-20T09:08:10.042Z,12.03
2023-03-20T09:09:23.571Z,12.06
2023-03-20T09:10:29.717Z,12.09
2023-03-20T09:11:43.272Z,12.12
2023-03-20T09:12:56.714Z,12.15
2023-03-20T09:13:53.468Z,12.17
2023-03-20T09:14:59.693Z,12.18
2023-03-20T09:16:13.799Z,12.20
2023-03-20T09:17:28.335Z,12.21
2023-03-20T09:18:34.567Z,12.22
2023-03-20T09:19:36.921Z,12.23
2023-03-20T09:20:39.498Z,12.23
2023-03-20T09:21:51.851Z,12.25
2023-03-20T09:22:48.275Z,12.27
2023-03-20T09:23:38.981Z,12.28
2023-03-20T09:24:52.558Z,12.29
2023-03-20T09:26:06.099Z,12.31
2023-03-20T09:27:19.707Z,12.34
2023-03-20T09:28:33.311Z,12.36
2023-03-20T09:29:46.815Z,12.40
2023-03-20T09:31:00.380Z,12.42
2023-03-20T09:32:04.039Z,12.46
2023-03-20T09:33:17.656Z,12.49
2023-03-20T09:34:31.627Z,12.52
2023-03-20T09:35:45.414Z,12.54
2023-03-20T09:36:58.939Z,12.58
2023-03-20T09:38:12.598Z,12.61
2023-03-20T09:39:26.061Z,12.65
2023-03-20T09:40:39.632Z,12.69
2023-03-20T09:41:59.064Z,12.72
2023-03-20T09:43:18.406Z,12.77
2023-03-20T09:44:32.047Z,12.80
2023-03-20T09:45:34.314Z,12.84
2023-03-20T09:46:36.217Z,12.87
2023-03-20T09:47:49.847Z,12.90
2023-03-20T09:49:03.431Z,12.93
2023-03-20T09:50:20.023Z,12.96
2023-03-20T09:51:36.810Z,12.99
2023-03-20T09:52:56.599Z,13.02
2023-03-20T09:54:10.534Z,13.06
2023-03-20T09:55:24.972Z,13.09
2023-03-20T09:56:43.621Z,13.13
2023-03-20T09:58:01.220Z,13.16
2023-03-20T09:59:14.793Z,13.19
2023-03-20T10:00:28.331Z,13.20
2023-03-20T10:01:41.963Z,13.22
2023-03-20T10:02:46.978Z,13.24
2023-03-20T10:04:00.631Z,13.25
2023-03-20T10:05:14.013Z,13.26
2023-03-20T10:06:27.530Z,13.29
2023-03-20T10:07:41.178Z,13.30
2023-03-20T10:08:54.681Z,13.32
2023-03-20T10:10:07.236Z,13.35
2023-03-20T10:11:23.614Z,13.37
2023-03-20T10:12:37.288Z,13.41
2023-03-20T10:13:50.926Z,13.43
2023-03-20T10:15:02.635Z,13.45
2023-03-20T10:16:16.335Z,13.48
2023-03-20T10:17:27.942Z,13.51
2023-03-20T10:18:41.695Z,13.54
2023-03-20T10:19:56.345Z,13.56
2023-03-20T10:21:09.950Z,13.60
2023-03-20T10:22:23.446Z,13.62
2023-03-20T10:23:31.010Z,13.66
2023-03-20T10:24:44.584Z,13.69
2023-03-20T10:26:01.082Z,13.72
2023-03-20T10:27:14.593Z,13.75
2023-03-20T10:28:28.269Z,13.77
2023-03-20T10:29:41.781Z,13.79
2023-03-20T10:30:57.797Z,13.82
2023-03-20T10:32:26.199Z,13.83
2023-03-20T10:33:38.076Z,13.85
2023-03-20T10:34:49.858Z,13.87
2023-03-20T10:36:09.489Z,13.90
2023-03-20T10:37:06.093Z,13.92
2023-03-20T10:38:19.644Z,13.95
2023-03-20T10:39:36.301Z,13.98
2023-03-20T10:40:38.897Z,14.01
2023-03-20T10:41:55.520Z,14.04
2023-03-20T10:43:11.819Z,14.07
2023-03-20T10:44:25.287Z,14.11
2023-03-20T10:45:41.379Z,14.14
2023-03-20T10:46:57.813Z,14.18
2023-03-20T10:48:04.454Z,14.21
2023-03-20T10:49:18.232Z,14.25
2023-03-20T10:50:16.624Z,14.27
2023-03-20T10:51:32.949Z,14.29
2023-03-20T10:52:49.464Z,14.32
2023-03-20T10:54:01.300Z,14.35
2023-03-20T10:55:14.869Z,14.39
2023-03-20T10:56:28.390Z,14.42
2023-03-20T10:57:41.924Z,14.45
2023-03-20T10:58:55.489Z,14.46
2023-03-20T11:00:14.685Z,14.48
2023-03-20T11:01:12.351Z,14.49
2023-03-20T11:02:14.328Z,14.52
2023-03-20T11:03:28.040Z,14.53
2023-03-20T11:04:41.493Z,14.55
2023-03-20T11:06:06.639Z,14.58
2023-03-20T11:07:22.603Z,14.60
2023-03-20T11:08:45.986Z,14.62
2023-03-20T11:09:59.455Z,14.64
2023-03-20T11:11:04.130Z,14.67
2023-03-20T11:12:17.598Z,14.68
2023-03-20T11:13:23.423Z,14.70
2023-03-20T11:14:36.926Z,14.72
2023-03-20T11:15:49.029Z,14.74
2023-03-20T11:17:06.247Z,14.77
2023-03-20T11:18:19.909Z,14.80
2023-03-20T11:19:33.551Z,14.83
2023-03-20T11:20:47.251Z,14.87
2023-03-20T11:21:54.371Z,14.89
2023-03-20T11:23:07.909Z,14.92
2023-03-20T11:24:21.523Z,14.95
2023-03-20T11:25:23.554Z,14.99
2023-03-20T11:26:43.474Z,15.03
2023-03-20T11:27:57.007Z,15.06
2023-03-20T11:29:10.529Z,15.08
2023-03-20T11:30:24.238Z,15.11
2023-03-20T11:31:38.268Z,15.12
2023-03-20T11:32:58.045Z,15.13
2023-03-20T11:34:11.759Z,15.13
2023-03-20T11:35:17.672Z,15.13
2023-03-20T11:36:32.363Z,15.13
2023-03-20T11:37:48.979Z,15.12
2023-03-20T11:39:02.607Z,15.12
2023-03-20T11:40:16.211Z,15.11
2023-03-20T11:41:29.800Z,15.11
2023-03-20T11:42:43.329Z,15.09
2023-03-20T11:43:56.837Z,15.09
2023-03-20T11:45:10.349Z,15.08
2023-03-20T11:46:23.975Z,15.07
2023-03-20T11:47:37.497Z,15.07
2023-03-20T11:48:59.875Z,15.07
2023-03-20T11:50:02.105Z,15.06
2023-03-20T11:50:57.470Z,15.07
2023-03-20T11:52:10.998Z,15.06
2023-03-20T11:53:24.508Z,15.07
2023-03-20T11:54:38.014Z,15.05
2023-03-20T11:55:54.244Z,15.05
2023-03-20T11:57:07.753Z,15.05
2023-03-20T11:58:11.333Z,15.05
2023-03-20T11:59:22.915Z,15.04
2023-03-20T12:00:36.743Z,15.04
2023-03-20T12:01:50.490Z,15.03
2023-03-20T12:03:04.145Z,15.02
2023-03-20T12:04:19.070Z,15.02
2023-03-20T12:05:32.776Z,15.02
2023-03-20T12:06:46.365Z,15.01
2023-03-20T12:08:09.236Z,15.00
2023-03-20T12:09:22.766Z,15.00
2023-03-20T12:10:34.317Z,14.98
2023-03-20T12:11:38.051Z,14.99
2023-03-20T12:12:41.274Z,14.99
2023-03-20T12:14:01.067Z,14.98
2023-03-20T12:15:20.425Z,14.99
2023-03-20T12:16:36.588Z,14.99
2023-03-20T12:17:56.235Z,15.01
2023-03-20T12:19:12.410Z,15.02
2023-03-20T12:20:26.035Z,15.03
2023-03-20T12:21:51.574Z,15.02
2023-03-20T12:23:05.195Z,15.01
2023-03-20T12:24:16.732Z,15.00
2023-03-20T12:25:30.253Z,14.99
2023-03-20T12:26:36.357Z,14.98
2023-03-20T12:27:55.655Z,14.97
2023-03-20T12:29:18.033Z,14.96
2023-03-20T12:30:40.538Z,14.95
2023-03-20T12:32:03.219Z,14.95
2023-03-20T12:33:34.912Z,14.94
2023-03-20T12:34:51.272Z,14.94
2023-03-20T12:36:07.510Z,14.93
2023-03-20T12:37:24.070Z,14.93
2023-03-20T12:38:34.738Z,14.94
2023-03-20T12:39:51.708Z,14.94
2023-03-20T12:41:05.395Z,14.95
2023-03-20T12:42:18.937Z,14.96
2023-03-20T12:43:35.340Z,14.98
2023-03-20T12:45:02.085Z,15.00
2023-03-20T12:46:44.604Z,15.05
2023-03-20T12:48:04.367Z,15.11
2023-03-20T12:49:17.977Z,15.16
2023-03-20T12:50:34.368Z,15.20
2023-03-20T12:51:48.067Z,15.24
2023-03-20T12:53:02.642Z,15.29
2023-03-20T12:54:19.272Z,15.33
2023-03-20T12:55:45.113Z,15.36
2023-03-20T12:57:07.436Z,15.40
2023-03-20T12:58:00.702Z,15.43
2023-03-20T12:59:14.336Z,15.46
2023-03-20T13:00:26.014Z,15.49
2023-03-20T13:01:28.327Z,15.52
2023-03-20T13:02:44.996Z,15.53
2023-03-20T13:04:07.308Z,15.54
2023-03-20T13:05:26.662Z,15.55
2023-03-20T13:06:43.259Z,15.56
2023-03-20T13:07:59.731Z,15.58
2023-03-20T13:09:13.374Z,15.59
2023-03-20T13:10:37.690Z,15.61
2023-03-20T13:11:58.592Z,15.62
2023-03-20T13:13:20.770Z,15.62
2023-03-20T13:14:20.908Z,15.63
2023-03-20T13:15:46.262Z,15.64
2023-03-20T13:17:06.825Z,15.64
2023-03-20T13:18:24.088Z,15.65
2023-03-20T13:21:57.965Z,15.63
2023-03-20T13:23:17.681Z,15.63
2023-03-20T13:24:34.660Z,15.64
2023-03-20T13:25:46.757Z,15.64
2023-03-20T13:27:13.482Z,15.64
2023-03-20T13:32:15.502Z,15.66
2023-03-20T13:33:31.799Z,15.66
2023-03-20T13:34:48.476Z,15.66
2023-03-20T13:35:47.637Z,15.66
2023-03-20T13:36:43.803Z,15.67
2023-03-20T13:38:06.365Z,15.67
2023-03-20T13:39:20.121Z,15.66
2023-03-20T13:40:39.904Z,15.67
2023-03-20T13:41:44.227Z,15.67
2023-03-20T13:42:53.496Z,15.67
2023-03-20T13:43:35.448Z,15.67
2023-03-20T13:44:49.268Z,15.66
2023-03-20T13:46:11.782Z,15.67
2023-03-20T13:47:25.495Z,15.67
2023-03-20T13:48:39.156Z,15.68
2023-03-20T13:49:55.840Z,15.68
2023-03-20T13:51:15.436Z,15.69
2023-03-20T13:52:47.394Z,15.69
2023-03-20T13:54:06.647Z,15.69
2023-03-20T13:55:20.438Z,15.70
2023-03-20T13:56:36.433Z,15.70
2023-03-20T13:57:49.955Z,15.70
2023-03-20T13:59:03.563Z,15.69
2023-03-20T14:00:17.176Z,15.69
2023-03-20T14:01:30.839Z,15.70
2023-03-20T14:02:50.650Z,15.69
2023-03-20T14:04:10.285Z,15.68
2023-03-20T14:05:12.770Z,15.69
2023-03-20T14:06:26.803Z,15.69
2023-03-20T14:07:25.775Z,15.68
2023-03-20T14:08:19.496Z,15.68
2023-03-20T14:09:36.336Z,15.68
2023-03-20T14:11:01.938Z,15.68
2023-03-20T14:12:18.682Z,15.68
2023-03-20T14:13:35.782Z,15.67
2023-03-20T14:14:50.531Z,15.66
2023-03-20T14:16:08.094Z,15.66
2023-03-20T14:17:22.205Z,15.66
2023-03-20T14:18:35.786Z,15.63
2023-03-20T14:19:49.567Z,15.60
2023-03-20T14:21:15.085Z,15.56
2023-03-20T14:22:28.647Z,15.51
2023-03-20T14:23:42.787Z,15.46
2023-03-20T14:24:56.533Z,15.41
2023-03-20T14:26:10.150Z,15.36
2023-03-20T14:27:36.736Z,15.33
2023-03-20T14:28:55.128Z,15.30
2023-03-20T14:30:12.428Z,15.27
2023-03-20T14:31:27.572Z,15.25
2023-03-20T14:32:55.153Z,15.20
2023-03-20T14:34:08.958Z,15.17
2023-03-20T14:35:25.581Z,15.14
2023-03-20T14:36:57.779Z,15.11
2023-03-20T14:38:11.642Z,15.06
2023-03-20T14:39:10.533Z,15.03
2023-03-20T14:40:13.226Z,15.00
2023-03-20T14:41:26.963Z,15.00
2023-03-20T14:42:55.790Z,14.99
2023-03-20T14:44:07.630Z,14.99
2023-03-20T14:45:29.983Z,15.01
2023-03-20T14:46:43.717Z,15.01
2023-03-20T14:48:03.641Z,15.02
2023-03-20T14:49:17.285Z,15.03
2023-03-20T14:50:31.168Z,15.04
2023-03-20T14:51:43.319Z,15.03
2023-03-20T14:52:36.530Z,15.02
2023-03-20T14:53:50.352Z,15.03
2023-03-20T14:55:03.956Z,15.01
2023-03-20T14:56:29.665Z,15.00
2023-03-20T14:57:59.123Z,14.98
2023-03-20T14:59:11.431Z,14.94
2023-03-20T15:00:24.946Z,14.93
2023-03-20T15:01:38.537Z,14.89
2023-03-20T15:03:01.370Z,14.87
2023-03-20T15:04:14.876Z,14.85
2023-03-20T15:05:28.420Z,14.82
2023-03-20T15:06:42.082Z,14.80
2023-03-20T15:07:54.609Z,14.77
2023-03-20T15:09:11.020Z,14.75
2023-03-20T15:10:24.693Z,14.72
2023-03-20T15:11:38.319Z,14.69
2023-03-20T15:12:55.225Z,14.65
2023-03-20T15:14:08.849Z,14.62
2023-03-20T15:15:25.348Z,14.59
2023-03-20T15:16:39.405Z,14.55
2023-03-20T15:17:53.711Z,14.52
2023-03-20T15:20:26.594Z,14.44
2023-03-20T15:21:40.238Z,14.43
2023-03-20T15:22:55.670Z,14.40
2023-03-20T15:24:11.388Z,14.36
2023-03-20T15:25:24.973Z,14.32
2023-03-20T15:26:29.110Z,14.28
2023-03-20T15:27:42.746Z,14.25
2023-03-20T15:28:56.363Z,14.20
2023-03-20T15:29:53.247Z,14.15
2023-03-20T15:31:07.757Z,14.14
2023-03-20T15:32:21.291Z,14.10
2023-03-20T15:33:35.727Z,14.06
2023-03-20T15:34:49.445Z,14.01
2023-03-20T15:36:05.648Z,13.99
2023-03-20T15:37:20.309Z,13.95
2023-03-20T15:38:34.074Z,13.92
2023-03-20T15:39:47.762Z,13.89
2023-03-20T15:41:04.151Z,13.85
2023-03-20T15:42:17.999Z,13.84
2023-03-20T15:43:34.279Z,13.81
2023-03-20T15:44:53.637Z,13.80
2023-03-20T15:46:18.115Z,13.78
2023-03-20T15:47:33.001Z,13.75
2023-03-20T15:48:40.081Z,13.75
2023-03-20T15:49:53.953Z,13.72
2023-03-20T15:51:08.258Z,13.70
2023-03-20T15:52:22.179Z,13.69
2023-03-20T15:53:30.135Z,13.67
2023-03-20T15:54:43.556Z,13.66
2023-03-20T15:56:04.459Z,13.64
2023-03-20T15:57:28.930Z,13.61
2023-03-20T15:58:42.480Z,13.60
2023-03-20T15:59:56.078Z,13.57
2023-03-20T16:01:12.711Z,13.55
2023-03-20T16:02:26.313Z,13.52
2023-03-20T16:03:40.037Z,13.48
2023-03-20T16:04:57.904Z,13.46
2023-03-20T16:05:52.115Z,13.44
2023-03-20T16:07:06.186Z,13.41
2023-03-20T16:08:21.624Z,13.38
2023-03-20T16:09:38.038Z,13.36
2023-03-20T16:10:57.808Z,13.32